Time;durP1;ratioP1;P1;durP2;ratioP2;P2;SDS_P1;SDS_P2;PMS_P1;PMS_P2;Temp;Humidity;BMP_temperature;BMP_pressure;BME280_temperature;BME280_humidity;BME280_pressure;Samples;Min_cycle;Max_cycle;Signal;HPM_P1;HPM_P2
2023/03/12 00:02:21;;;;;;;6.28;4.78;;;;;;;2.73;100.00;101021.97;4953644;28;20497;-59
2023/03/12 00:04:46;;;;;;;9.85;4.65;;;;;;;2.87;100.00;101040.19;4953584;28;20114;-59
2023/03/12 00:07:11;;;;;;;6.13;4.18;;;;;;;2.86;100.00;101024.59;4952204;29;20035;-58
2023/03/12 00:09:38;;;;;;;7.00;5.07;;;;;;;2.35;100.00;100940.47;4953605;28;20035;-61
2023/03/12 00:12:04;;;;;;;9.75;4.68;;;;;;;2.71;100.00;101015.06;4953165;28;20185;-61
2023/03/12 00:14:29;;;;;;;6.82;4.68;;;;;;;2.51;100.00;100983.78;4952183;29;20042;-58
2023/03/12 00:16:55;;;;;;;10.23;5.50;;;;;;;2.75;100.00;101022.84;4968155;28;20039;-58
2023/03/12 00:19:20;;;;;;;6.13;4.88;;;;;;;2.61;100.00;100995.09;4952176;29;20109;-58
2023/03/12 00:21:45;;;;;;;7.85;4.70;;;;;;;2.59;100.00;100981.22;4936294;29;20398;-57
2023/03/12 00:24:11;;;;;;;6.93;4.82;;;;;;;2.74;100.00;101000.31;4953461;28;20046;-59
2023/03/12 00:26:36;;;;;;;9.18;5.75;;;;;;;2.35;100.00;100927.47;4953520;28;20047;-60
2023/03/12 00:29:01;;;;;;;8.98;4.75;;;;;;;2.74;100.00;100991.66;4953247;28;20043;-59
2023/03/12 00:31:31;;;;;;;9.80;4.85;;;;;;;2.77;100.00;101005.50;4953339;28;20410;-58
2023/03/12 00:33:57;;;;;;;7.38;4.80;;;;;;;2.33;100.00;100924.03;4953252;28;20034;-59
2023/03/12 00:36:25;;;;;;;8.85;4.47;;;;;;;2.72;100.00;100989.03;4969130;28;20047;-59
2023/03/12 00:38:51;;;;;;;9.00;5.10;;;;;;;2.73;100.00;100983.00;4963985;28;20084;-58
2023/03/12 00:41:18;;;;;;;8.85;5.28;;;;;;;2.70;100.00;100995.97;4963579;28;20031;-59
2023/03/12 00:43:47;;;;;;;11.93;5.40;;;;;;;2.70;100.00;100990.78;4987810;28;20410;-58
2023/03/12 00:46:13;;;;;;;8.45;4.88;;;;;;;2.24;100.00;100898.03;4968791;28;20120;-59
2023/03/12 00:48:39;;;;;;;9.45;4.82;;;;;;;2.18;100.00;100892.81;4985987;28;20070;-59
2023/03/12 00:51:05;;;;;;;8.55;4.97;;;;;;;2.65;100.00;100960.47;4959551;28;20054;-59
2023/03/12 00:53:30;;;;;;;7.18;4.57;;;;;;;2.60;100.00;100950.03;4980415;28;20499;-59
2023/03/12 00:55:55;;;;;;;7.40;4.93;;;;;;;2.60;100.00;100959.56;4975380;28;20027;-59
2023/03/12 00:58:21;;;;;;;8.65;4.82;;;;;;;2.09;100.00;100869.41;4974464;28;20141;-59
2023/03/12 01:00:46;;;;;;;11.00;4.90;;;;;;;2.74;100.00;100989.91;4985301;28;20034;-59
2023/03/12 01:03:12;;;;;;;8.32;5.22;;;;;;;2.65;100.00;100961.34;4959513;28;20074;-59
2023/03/12 01:05:39;;;;;;;6.85;4.70;;;;;;;2.67;100.00;100972.59;4964843;28;20038;-58
2023/03/12 01:08:06;;;;;;;8.55;5.30;;;;;;;2.74;100.00;100989.06;4971307;28;20444;-59
2023/03/12 01:10:31;;;;;;;6.72;4.47;;;;;;;2.14;100.00;100870.28;4958067;28;20475;-60
2023/03/12 01:12:57;;;;;;;9.50;5.40;;;;;;;2.69;100.00;100975.16;4970674;28;20042;-60
2023/03/12 01:15:22;;;;;;;8.50;5.43;;;;;;;2.65;100.00;100966.53;4979077;28;20042;-60
2023/03/12 01:17:48;;;;;;;7.88;4.90;;;;;;;2.58;100.00;100950.91;4969953;28;20487;-59
2023/03/12 01:20:13;;;;;;;7.10;4.63;;;;;;;2.64;100.00;100948.31;4972299;28;20031;-59
2023/03/12 01:22:39;;;;;;;7.25;5.50;;;;;;;2.23;100.00;100878.09;4973018;28;20039;-59
2023/03/12 01:25:05;;;;;;;7.72;4.95;;;;;;;2.70;100.00;100963.91;4966515;28;20450;-58
2023/03/12 01:27:31;;;;;;;8.23;5.03;;;;;;;2.24;100.00;100883.31;4954247;28;20047;-58
2023/03/12 01:29:56;;;;;;;9.52;5.15;;;;;;;2.59;100.00;100935.34;4956085;29;20479;-58
2023/03/12 01:32:21;;;;;;;10.38;5.55;;;;;;;2.67;100.00;100943.13;4955079;29;20534;-59
2023/03/12 01:34:47;;;;;;;7.65;5.35;;;;;;;2.25;100.00;100856.47;4954855;29;20043;-58
2023/03/12 01:37:12;;;;;;;9.30;4.30;;;;;;;2.26;100.00;100854.72;4955920;28;20446;-60
2023/03/12 01:39:37;;;;;;;7.50;4.95;;;;;;;2.67;100.00;100917.13;4956066;28;20043;-59
2023/03/12 01:42:03;;;;;;;12.65;5.93;;;;;;;2.76;100.00;100933.63;4969757;28;20056;-59
2023/03/12 01:44:28;;;;;;;8.07;4.10;;;;;;;2.76;100.00;100923.22;4975410;28;20039;-59
2023/03/12 01:46:54;;;;;;;6.10;4.35;;;;;;;2.88;100.00;100942.28;4989923;28;20042;-59
2023/03/12 01:49:29;;;;;;;7.53;4.65;;;;;;;2.69;100.00;100894.59;4975234;28;20034;-60
2023/03/12 01:52:02;;;;;;;6.45;4.28;;;;;;;2.83;100.00;100904.13;4978558;28;20362;-60
2023/03/12 01:54:32;;;;;;;10.57;4.22;;;;;;;2.99;100.00;100920.59;4974640;28;20134;-59
2023/03/12 01:56:57;;;;;;;8.82;4.45;;;;;;;2.95;100.00;100899.81;4989921;28;20474;-60
2023/03/12 01:59:35;;;;;;;8.18;4.22;;;;;;;2.52;100.00;100824.44;4989989;28;20058;-59
2023/03/12 02:02:01;;;;;;;5.63;4.22;;;;;;;2.82;100.00;100871.22;4990015;28;20470;-59
2023/03/12 02:04:27;;;;;;;7.60;3.70;;;;;;;2.92;100.00;100898.06;4989787;28;20097;-59
2023/03/12 02:07:07;;;;;;;7.18;3.83;;;;;;;2.57;100.00;100812.31;4989363;28;20031;-59
2023/03/12 02:09:35;;;;;;;9.18;4.07;;;;;;;2.58;100.00;100807.97;4974115;28;20058;-59
2023/03/12 02:12:01;;;;;;;9.68;4.25;;;;;;;2.52;100.00;100797.59;4989590;28;20066;-59
2023/03/12 02:14:27;;;;;;;11.35;4.22;;;;;;;2.38;100.00;100761.25;4974624;28;20042;-60
2023/03/12 02:16:53;;;;;;;7.75;3.97;;;;;;;3.06;100.00;100898.06;4973429;28;20034;-58
2023/03/12 02:19:43;;;;;;;7.70;4.25;;;;;;;3.07;100.00;100872.06;4973215;28;20158;-57
2023/03/12 02:22:09;;;;;;;9.05;4.38;;;;;;;3.07;100.00;100869.44;4974544;28;20544;-59
2023/03/12 02:24:41;;;;;;;8.70;3.92;;;;;;;3.06;100.00;100874.69;4973037;28;20122;-59
2023/03/12 02:27:06;;;;;;;7.55;3.50;;;;;;;2.54;100.00;100780.28;4988673;28;20050;-60
2023/03/12 02:29:33;;;;;;;5.38;3.67;;;;;;;2.47;100.00;100776.81;4974490;28;20035;-59
2023/03/12 02:31:59;;;;;;;6.25;3.50;;;;;;;2.86;100.00;100843.47;4972650;28;20051;-58
2023/03/12 02:34:25;;;;;;;6.78;4.30;;;;;;;2.88;100.00;100862.56;4973205;28;20045;-59
2023/03/12 02:36:50;;;;;;;9.82;3.78;;;;;;;2.92;100.00;100861.66;4974310;28;20030;-58
2023/03/12 02:39:16;;;;;;;6.10;3.35;;;;;;;2.44;100.00;100776.81;4972764;28;20174;-58
2023/03/12 02:41:45;;;;;;;6.55;3.80;;;;;;;2.57;100.00;100799.31;4971965;28;20046;-59
2023/03/12 02:44:25;;;;;;;11.38;3.67;;;;;;;2.59;100.00;100802.81;4974108;28;20039;-58
2023/03/12 02:46:52;;;;;;;6.28;3.67;;;;;;;2.94;100.00;100851.28;4973877;28;20062;-59
2023/03/12 02:49:19;;;;;;;7.18;4.03;;;;;;;2.97;100.00;100852.16;4972649;28;20559;-58
2023/03/12 02:51:46;;;;;;;5.25;3.05;;;;;;;2.72;100.00;100791.50;4988659;28;20039;-58
2023/03/12 02:54:12;;;;;;;8.70;3.75;;;;;;;2.95;100.00;100827.88;4973918;28;20037;-58
2023/03/12 02:56:38;;;;;;;6.95;3.45;;;;;;;3.01;100.00;100830.47;4972497;28;20038;-58
2023/03/12 02:59:04;;;;;;;8.32;4.18;;;;;;;2.53;100.00;100737.84;4971381;28;20591;-60
2023/03/12 03:01:32;;;;;;;8.15;3.65;;;;;;;3.02;100.00;100826.13;4972442;28;20117;-58
2023/03/12 03:04:01;;;;;;;4.97;3.00;;;;;;;2.51;100.00;100725.72;4973865;28;20034;-59
2023/03/12 03:06:27;;;;;;;9.00;3.50;;;;;;;3.03;100.00;100833.94;4972997;28;20482;-59
2023/03/12 03:08:52;;;;;;;10.18;3.28;;;;;;;3.04;100.00;100816.56;4973667;28;20071;-60
2023/03/12 03:11:18;;;;;;;8.88;3.35;;;;;;;2.60;100.00;100723.09;4973742;28;20034;-58
2023/03/12 03:13:44;;;;;;;5.82;3.13;;;;;;;2.91;100.00;100770.69;4988348;28;20031;-58
2023/03/12 03:16:11;;;;;;;7.00;2.90;;;;;;;2.63;100.00;100723.97;4972235;28;20530;-59
2023/03/12 03:18:36;;;;;;;5.97;3.20;;;;;;;2.50;100.00;100696.28;4973510;28;20475;-60
2023/03/12 03:21:05;;;;;;;12.15;4.50;;;;;;;3.04;100.00;100793.16;4973452;28;20057;-59
2023/03/12 03:23:31;;;;;;;7.05;3.83;;;;;;;2.95;100.00;100762.03;4973291;28;20030;-59
2023/03/12 03:25:56;;;;;;;8.77;3.70;;;;;;;2.51;100.00;100685.00;4973336;28;20500;-59
2023/03/12 03:28:23;;;;;;;6.78;3.28;;;;;;;3.06;100.00;100787.13;4971680;28;20046;-59
2023/03/12 03:30:51;;;;;;;7.82;3.47;;;;;;;3.09;100.00;100787.13;4973236;28;20049;-59
2023/03/12 03:33:17;;;;;;;6.25;3.30;;;;;;;2.63;100.00;100687.56;4971093;28;20051;-59
2023/03/12 03:35:42;;;;;;;7.43;3.72;;;;;;;2.97;100.00;100750.75;4971258;28;20379;-60
2023/03/12 03:38:07;;;;;;;7.90;4.63;;;;;;;2.95;100.00;100736.88;4971072;28;20117;-60
2023/03/12 03:40:33;;;;;;;6.38;4.00;;;;;;;2.45;100.00;100651.25;4987109;28;20129;-59
2023/03/12 03:42:58;;;;;;;4.97;3.78;;;;;;;3.02;100.00;100746.38;4970989;28;20093;-59
2023/03/12 03:45:23;;;;;;;8.23;4.55;;;;;;;2.88;100.00;100719.56;4972447;28;20098;-60
2023/03/12 03:47:49;;;;;;;6.43;3.20;;;;;;;2.96;100.00;100730.81;4987421;28;20487;-60
2023/03/12 03:50:14;;;;;;;9.20;4.20;;;;;;;3.06;100.00;100734.25;4971496;28;20627;-59
2023/03/12 03:52:39;;;;;;;10.63;4.35;;;;;;;3.03;100.00;100721.25;4972036;28;20114;-60
2023/03/12 03:55:05;;;;;;;10.50;4.38;;;;;;;2.96;100.00;100716.94;4972301;28;20039;-60
2023/03/12 03:57:30;;;;;;;7.50;3.72;;;;;;;3.01;100.00;100723.84;4986779;28;20046;-60
2023/03/12 03:59:57;;;;;;;7.45;4.07;;;;;;;2.97;100.00;100713.47;4966676;28;20035;-59
2023/03/12 04:02:24;;;;;;;6.88;3.78;;;;;;;2.57;100.00;100637.38;4953027;28;20170;-59
2023/03/12 04:04:50;;;;;;;7.88;3.85;;;;;;;2.95;100.00;100715.22;4951802;29;20035;-59
2023/03/12 04:07:15;;;;;;;8.00;3.90;;;;;;;3.00;100.00;100716.06;4952830;28;20042;-59
2023/03/12 04:09:41;;;;;;;8.63;4.35;;;;;;;2.97;100.00;100722.16;4952801;28;20120;-59
2023/03/12 04:12:06;;;;;;;9.85;3.95;;;;;;;2.95;100.00;100707.44;4952639;28;20039;-59
2023/03/12 04:14:31;;;;;;;12.18;4.35;;;;;;;2.61;100.00;100647.75;4953180;28;20109;-60
2023/03/12 04:16:57;;;;;;;7.15;3.90;;;;;;;2.98;100.00;100729.06;4952842;28;20032;-60
2023/03/12 04:19:22;;;;;;;8.85;3.65;;;;;;;2.56;100.00;100633.03;4971369;28;20134;-60
2023/03/12 04:21:47;;;;;;;9.82;5.35;;;;;;;3.00;100.00;100711.75;4975386;28;20082;-60
2023/03/12 04:24:14;;;;;;;8.35;3.80;;;;;;;3.03;100.00;100716.06;4975358;28;20069;-60
2023/03/12 04:26:40;;;;;;;8.18;4.32;;;;;;;2.72;100.00;100645.09;4975219;28;20126;-60
2023/03/12 04:29:05;;;;;;;15.13;4.70;;;;;;;2.60;100.00;100616.56;4975308;28;20121;-60
2023/03/12 04:31:31;;;;;;;10.03;4.90;;;;;;;2.56;100.00;100594.94;4952781;28;1089354;-59
2023/03/12 04:33:56;;;;;;;8.30;4.88;;;;;;;2.59;100.00;100591.47;4991587;28;20043;-59
2023/03/12 04:36:22;;;;;;;10.63;5.22;;;;;;;3.00;100.00;100671.88;4975889;28;20154;-59
2023/03/12 04:38:47;;;;;;;11.13;5.80;;;;;;;2.55;100.00;100585.41;4975121;28;20062;-59
2023/03/12 04:41:14;;;;;;;9.85;5.55;;;;;;;2.72;100.00;100609.59;4976285;28;20071;-60
2023/03/12 04:43:39;;;;;;;9.90;5.72;;;;;;;2.46;100.00;100561.19;4975017;28;20035;-59
2023/03/12 04:46:05;;;;;;;12.63;6.38;;;;;;;2.80;100.00;100628.59;4991137;28;20031;-60
2023/03/12 04:48:31;;;;;;;12.18;6.50;;;;;;;2.75;100.00;100613.91;4976373;28;20113;-58
2023/03/12 04:50:57;;;;;;;10.68;6.85;;;;;;;2.78;100.00;100637.28;4990350;28;20161;-59
2023/03/12 04:53:22;;;;;;;12.38;6.85;;;;;;;2.24;100.00;100556.09;4975971;28;20105;-61
2023/03/12 04:55:48;;;;;;;13.68;7.47;;;;;;;2.68;100.00;100626.09;4975852;28;20074;-58
2023/03/12 04:58:13;;;;;;;8.60;7.20;;;;;;;2.64;100.00;100623.47;4975666;28;20034;-59
2023/03/12 05:00:39;;;;;;;15.15;7.65;;;;;;;2.35;100.00;100574.22;4978838;28;20074;-60
2023/03/12 05:03:05;;;;;;;17.10;9.30;;;;;;;2.66;100.00;100627.81;4956246;28;20078;-62
2023/03/12 05:05:30;;;;;;;16.33;11.60;;;;;;;2.69;100.00;100635.59;4956859;28;20144;-59
2023/03/12 05:07:55;;;;;;;20.92;14.48;;;;;;;2.68;100.00;100627.81;4956395;28;20043;-59
2023/03/12 05:10:20;;;;;;;20.17;13.02;;;;;;;2.55;100.00;100605.31;4966213;28;20121;-59
2023/03/12 05:12:46;;;;;;;19.52;13.05;;;;;;;2.72;100.00;100622.56;4975021;28;20031;-59
2023/03/12 05:15:11;;;;;;;15.27;12.10;;;;;;;2.36;100.00;100557.78;4975982;28;20042;-59
2023/03/12 05:17:36;;;;;;;14.98;10.73;;;;;;;2.61;100.00;100594.91;4976036;28;20042;-59
2023/03/12 05:20:04;;;;;;;17.52;10.85;;;;;;;2.70;100.00;100608.75;4975791;28;20445;-59
2023/03/12 05:22:30;;;;;;;21.77;11.10;;;;;;;2.72;100.00;100619.13;4975576;28;20030;-60
2023/03/12 05:24:55;;;;;;;17.33;9.98;;;;;;;2.74;100.00;100617.41;4975484;28;20399;-59
2023/03/12 05:27:20;;;;;;;15.27;9.30;;;;;;;2.41;100.00;100558.63;4974710;28;20042;-59
2023/03/12 05:29:46;;;;;;;16.35;10.02;;;;;;;2.70;100.00;100600.06;4975293;28;20113;-60
2023/03/12 05:32:11;;;;;;;13.93;9.63;;;;;;;2.68;100.00;100607.88;4974086;28;20066;-59
2023/03/12 05:34:36;;;;;;;15.02;9.75;;;;;;;2.41;100.00;100547.38;4975579;28;20038;-59
2023/03/12 05:37:01;;;;;;;17.05;11.00;;;;;;;2.35;100.00;100530.06;4975307;28;20031;-62
2023/03/12 05:39:27;;;;;;;14.50;11.13;;;;;;;2.73;100.00;100594.88;4974982;28;20038;-59
2023/03/12 05:41:55;;;;;;;17.73;11.50;;;;;;;2.76;100.00;100594.84;4975240;28;20463;-60
2023/03/12 05:44:22;;;;;;;15.93;11.82;;;;;;;2.38;100.00;100531.78;4974648;28;20043;-59
2023/03/12 05:46:47;;;;;;;19.42;12.30;;;;;;;2.37;100.00;100523.13;4974135;28;20098;-58
2023/03/12 05:49:13;;;;;;;16.75;12.25;;;;;;;2.70;100.00;100587.94;4973800;28;20070;-59
2023/03/12 05:51:38;;;;;;;14.90;12.27;;;;;;;2.74;100.00;100594.84;4975328;28;20038;-59
2023/03/12 05:54:03;;;;;;;14.57;12.60;;;;;;;2.28;100.00;100508.44;4975117;28;20039;-63
2023/03/12 05:56:29;;;;;;;18.70;13.40;;;;;;;2.66;100.00;100572.34;4975134;28;20042;-59
2023/03/12 05:58:54;;;;;;;20.15;14.10;;;;;;;2.31;100.00;100522.31;4973572;28;20042;-59
2023/03/12 06:01:22;;;;;;;23.15;15.15;;;;;;;2.71;100.00;100614.81;4974138;28;20042;-58
2023/03/12 06:03:48;;;;;;;20.00;14.55;;;;;;;2.22;100.00;100512.78;4973625;28;20039;-59
2023/03/12 06:06:14;;;;;;;23.25;15.13;;;;;;;2.38;100.00;100537.84;4974706;28;20206;-59
2023/03/12 06:08:40;;;;;;;25.60;16.70;;;;;;;2.29;100.00;100504.13;4974776;28;20038;-59
2023/03/12 06:11:05;;;;;;;20.45;14.90;;;;;;;2.80;100.00;100587.00;4973642;28;20043;-59
2023/03/12 06:13:31;;;;;;;21.38;15.90;;;;;;;2.81;100.00;100583.56;4973695;28;20090;-58
2023/03/12 06:16:14;;;;;;;21.25;15.60;;;;;;;2.72;100.00;100570.59;4973387;28;20403;-59
2023/03/12 06:18:39;;;;;;;21.77;17.15;;;;;;;2.79;100.00;100571.44;4973800;28;20034;-59
2023/03/12 06:21:13;;;;;;;28.38;17.70;;;;;;;2.67;100.00;100554.19;4974331;28;20094;-59
2023/03/12 06:23:39;;;;;;;25.27;16.55;;;;;;;2.80;100.00;100578.38;4973518;28;20038;-59
2023/03/12 06:26:05;;;;;;;20.98;16.27;;;;;;;2.81;100.00;100567.09;4973128;28;20034;-58
2023/03/12 06:28:30;;;;;;;24.42;17.52;;;;;;;2.35;100.00;100467.75;4973273;28;20084;-59
2023/03/12 06:30:56;;;;;;;24.75;17.60;;;;;;;2.79;100.00;100533.31;4972849;28;20390;-60
2023/03/12 06:33:21;;;;;;;22.13;16.65;;;;;;;2.55;100.00;100480.63;4974315;28;20161;-58
2023/03/12 06:35:47;;;;;;;23.13;17.08;;;;;;;2.94;100.00;100545.38;4973439;28;20047;-58
2023/03/12 06:38:12;;;;;;;20.80;16.38;;;;;;;2.97;100.00;100541.88;4957158;28;20037;-58
2023/03/12 06:40:38;;;;;;;21.48;17.02;;;;;;;3.01;100.00;100551.38;4973525;28;20105;-59
2023/03/12 06:43:03;;;;;;;19.80;17.25;;;;;;;3.05;100.00;100545.28;4974128;28;20033;-60
2023/03/12 06:45:28;;;;;;;21.70;17.10;;;;;;;2.69;100.00;100469.25;4972860;28;20493;-58
2023/03/12 06:47:53;;;;;;;20.88;16.80;;;;;;;2.72;100.00;100461.44;4974177;28;20066;-59
2023/03/12 06:50:19;;;;;;;20.80;16.05;;;;;;;3.14;100.00;100538.28;4973121;28;20042;-59
2023/03/12 06:52:44;;;;;;;20.48;15.98;;;;;;;3.18;100.00;100539.97;4973670;28;20034;-59
2023/03/12 06:55:09;;;;;;;22.15;15.98;;;;;;;3.22;100.00;100533.03;4973665;28;20038;-58
2023/03/12 06:57:35;;;;;;;19.98;16.25;;;;;;;2.76;100.00;100452.78;4973909;28;20042;-60
2023/03/12 07:00:00;;;;;;;22.17;16.80;;;;;;;3.22;100.00;100544.28;4973879;28;20046;-60
2023/03/12 07:02:26;;;;;;;27.33;17.10;;;;;;;3.31;100.00;100532.97;4973946;28;20035;-60
2023/03/12 07:04:51;;;;;;;21.38;16.83;;;;;;;2.98;100.00;100484.66;4973773;28;20043;-58
2023/03/12 07:07:17;;;;;;;22.35;16.65;;;;;;;3.40;100.00;100541.56;4971428;28;20072;-59
2023/03/12 07:09:42;;;;;;;23.42;16.42;;;;;;;3.36;100.00;100537.25;4973632;28;20046;-58
2023/03/12 07:12:08;;;;;;;22.27;16.75;;;;;;;3.41;100.00;100551.06;4973780;28;20061;-58
2023/03/12 07:14:33;;;;;;;22.17;17.55;;;;;;;2.97;100.00;100456.94;4973610;28;20043;-60
2023/03/12 07:17:00;;;;;;;24.38;19.20;;;;;;;3.00;100.00;100469.94;4973714;28;20054;-59
2023/03/12 07:19:26;;;;;;;29.85;20.10;;;;;;;3.44;100.00;100539.81;4973196;28;20455;-60
2023/03/12 07:21:51;;;;;;;25.33;20.50;;;;;;;3.51;100.00;100546.66;4973248;28;20045;-59
2023/03/12 07:24:17;;;;;;;28.85;21.10;;;;;;;3.54;100.00;100559.66;4972520;28;20038;-59
2023/03/12 07:26:42;;;;;;;25.85;20.65;;;;;;;3.26;100.00;100490.53;4973227;28;20121;-60
2023/03/12 07:29:07;;;;;;;28.00;20.92;;;;;;;3.53;100.00;100534.53;4973252;28;20459;-60
2023/03/12 07:31:33;;;;;;;36.25;24.13;;;;;;;3.58;100.00;100550.94;4971374;28;20409;-57
2023/03/12 07:33:58;;;;;;;30.55;23.77;;;;;;;3.60;100.00;100546.59;4973225;28;20090;-60
2023/03/12 07:36:23;;;;;;;32.83;25.35;;;;;;;3.12;100.00;100455.97;4973068;28;20034;-60
2023/03/12 07:38:49;;;;;;;41.03;28.98;;;;;;;3.68;100.00;100544.78;4972792;28;20038;-59
2023/03/12 07:41:14;;;;;;;38.22;29.20;;;;;;;3.69;100.00;100551.72;4972366;28;20049;-60
2023/03/12 07:43:40;;;;;;;41.55;28.83;;;;;;;3.75;100.00;100550.78;4973193;28;20062;-59
2023/03/12 07:46:05;;;;;;;36.35;27.35;;;;;;;3.38;100.00;100474.81;4973064;28;20113;-59
2023/03/12 07:48:30;;;;;;;38.60;29.40;;;;;;;3.44;100.00;100492.97;4972846;28;20043;-59
2023/03/12 07:50:55;;;;;;;48.45;29.77;;;;;;;3.44;100.00;100479.97;4972756;28;20038;-59
2023/03/12 07:53:21;;;;;;;48.90;30.50;;;;;;;3.87;100.00;100553.28;4972834;28;20058;-59
2023/03/12 07:55:47;;;;;;;43.00;30.20;;;;;;;3.94;100.00;100578.41;4971491;28;20363;-59
2023/03/12 07:58:14;;;;;;;51.35;32.65;;;;;;;3.89;100.00;100547.19;4971954;28;20058;-59
2023/03/12 08:00:39;;;;;;;45.33;31.30;;;;;;;4.02;100.00;100566.16;4972797;28;20046;-59
2023/03/12 08:03:04;;;;;;;45.25;31.40;;;;;;;4.01;100.00;100564.41;4972713;28;20130;-59
2023/03/12 08:05:30;;;;;;;47.17;32.92;;;;;;;4.08;100.00;100554.81;4972695;28;20030;-59
2023/03/12 08:07:56;;;;;;;51.67;33.85;;;;;;;4.17;100.00;100572.94;4972886;28;20035;-59
2023/03/12 08:10:21;;;;;;;55.38;36.13;;;;;;;3.83;100.00;100489.97;4972890;28;20047;-59
2023/03/12 08:12:47;;;;;;;50.45;34.97;;;;;;;4.41;100.00;100567.44;4972491;28;20411;-60
2023/03/12 08:15:12;;;;;;;54.85;37.17;;;;;;;4.07;100.00;100493.19;4972791;28;20031;-60
2023/03/12 08:17:38;;;;;;;53.72;36.20;;;;;;;4.54;100.00;100554.28;4954598;28;20125;-59
2023/03/12 08:20:08;;;;;;;57.00;35.70;;;;;;;4.64;100.00;100548.94;4970676;28;20134;-60
2023/03/12 08:22:35;;;;;;;54.30;34.17;;;;;;;4.82;100.00;100569.53;4971150;28;20031;-60
2023/03/12 08:25:00;;;;;;;58.30;35.05;;;;;;;4.78;100.00;100537.44;4971549;28;20058;-60
2023/03/12 08:27:26;;;;;;;51.78;34.08;;;;;;;4.66;100.00;100518.50;4970457;28;20039;-59
2023/03/12 08:29:51;;;;;;;57.20;36.13;;;;;;;4.96;100.00;100544.16;4970848;28;20039;-59
2023/03/12 08:32:17;;;;;;;55.90;34.08;;;;;;;4.74;100.00;100487.97;4986378;28;20471;-59
2023/03/12 08:34:42;;;;;;;55.72;33.90;;;;;;;5.31;100.00;100582.78;4987196;28;20459;-60
2023/03/12 08:37:07;;;;;;;54.88;35.03;;;;;;;5.30;100.00;100573.22;4970180;28;20031;-59
2023/03/12 08:39:33;;;;;;;59.58;36.85;;;;;;;4.89;100.00;100486.00;4972386;28;20134;-60
2023/03/12 08:41:58;;;;;;;60.95;35.50;;;;;;;5.51;100.00;100609.44;4955313;28;20049;-59
2023/03/12 08:44:24;;;;;;;61.92;34.50;;;;;;;5.56;100.00;100594.56;4972365;28;20494;-59
2023/03/12 08:46:50;;;;;;;57.05;36.25;;;;;;;5.15;100.00;100518.63;4971236;28;20497;-60
2023/03/12 08:49:16;;;;;;;57.38;36.30;;;;;;;5.64;100.00;100579.63;4972153;28;20039;-59
2023/03/12 08:51:41;;;;;;;69.07;36.17;;;;;;;5.76;100.00;100589.88;4972439;28;20122;-60
2023/03/12 08:54:07;;;;;;;55.88;34.80;;;;;;;5.82;100.00;100592.38;4970170;28;20145;-59
2023/03/12 08:56:35;;;;;;;69.32;35.92;;;;;;;5.50;100.00;100517.19;4972296;28;20425;-59
2023/03/12 08:59:00;;;;;;;64.38;35.03;;;;;;;5.98;100.00;100579.94;4972300;28;20082;-60
2023/03/12 09:01:25;;;;;;;62.40;35.17;;;;;;;6.08;100.00;100584.97;4970933;28;20375;-59
2023/03/12 09:03:53;;;;;;;61.75;34.10;;;;;;;6.18;100.00;100589.16;4973893;28;20047;-60
2023/03/12 09:06:19;;;;;;;59.85;32.63;;;;;;;6.31;100.00;100588.91;4974448;28;20035;-60
2023/03/12 09:08:46;;;;;;;55.22;31.50;;;;;;;6.28;100.00;100541.91;4974672;28;20038;-60
2023/03/12 09:11:13;;;;;;;46.65;26.83;;;;;;;6.59;100.00;100580.50;4975008;28;20034;-60
2023/03/12 09:13:39;;;;;;;45.83;25.10;;;;;;;6.75;100.00;100575.81;4975024;28;20038;-59
2023/03/12 09:16:05;;;;;;;46.38;22.95;;;;;;;6.42;100.00;100516.38;4975582;28;20035;-60
2023/03/12 09:18:30;;;;;;;41.78;21.85;;;;;;;6.52;100.00;100500.47;4975482;28;20045;-59
2023/03/12 09:20:56;;;;;;;40.45;18.42;;;;;;;7.15;100.00;100583.69;4975787;28;20154;-60
2023/03/12 09:23:22;;;;;;;33.83;15.50;;;;;;;7.40;100.00;100584.81;4974565;28;20125;-59
2023/03/12 09:25:47;;;;;;;34.45;11.90;;;;;;;7.64;100.00;100581.63;4975411;28;20546;-59
2023/03/12 09:28:13;;;;;;;29.38;8.27;;;;;;;7.82;100.00;100586.38;4974465;28;20042;-60
2023/03/12 09:30:39;;;;;;;19.27;7.95;;;;;;;7.63;100.00;100503.94;4975475;28;20534;-58
2023/03/12 09:33:05;;;;;;;37.25;9.10;;;;;;;7.76;100.00;100521.03;4990050;28;20130;-60
2023/03/12 09:35:30;;;;;;;29.75;8.80;;;;;;;7.84;100.00;100513.00;4975618;28;20460;-59
2023/03/12 09:37:56;;;;;;;29.23;7.97;;;;;;;8.33;100.00;100601.69;4975385;28;20035;-59
2023/03/12 09:40:24;;;;;;;32.28;7.63;;;;;;;8.37;100.00;100601.59;4975331;28;20050;-60
2023/03/12 09:42:56;;;;;;;23.83;6.88;;;;;;;8.39;100.00;100605.03;4975125;28;20057;-60
2023/03/12 09:45:24;;;;;;;35.55;8.07;;;;;;;8.48;100.00;100607.41;4973198;28;20034;-59
2023/03/12 09:47:52;;;;;;;30.17;8.45;;;;;;;8.13;100.00;100533.19;4990193;28;20475;-60
2023/03/12 09:50:21;;;;;;;33.42;7.30;;;;;;;8.69;100.00;100608.56;4975335;28;20023;-60
2023/03/12 09:53:00;;;;;;;26.35;6.70;;;;;;;8.72;100.00;100584.88;4973283;28;20042;-60
2023/03/12 09:55:27;;;;;;;25.23;6.32;;;;;;;9.01;100.00;100586.63;4973771;28;20459;-60
2023/03/12 09:57:53;;;;;;;29.02;6.68;;;;;;;9.09;100.00;100592.50;4973762;28;20073;-60
2023/03/12 10:00:21;;;;;;;32.45;6.60;;;;;;;8.82;100.00;100528.56;4957356;28;20034;-60
2023/03/12 10:03:11;;;;;;;35.00;7.35;;;;;;;9.26;100.00;100595.47;4989595;28;20035;-60
2023/03/12 10:06:03;;;;;;;31.02;8.10;;;;;;;9.42;100.00;100599.38;4974707;28;20085;-59
2023/03/12 10:08:38;;;;;;;28.17;7.15;;;;;;;9.03;100.00;100517.41;4976360;28;20051;-61
2023/03/12 10:11:10;;;;;;;28.25;5.75;;;;;;;9.47;100.00;100617.59;4989523;28;20027;-59
2023/03/12 10:13:42;;;;;;;28.55;6.75;;;;;;;9.46;100.00;100616.72;4989364;28;20027;-59
2023/03/12 10:16:13;;;;;;;22.98;5.70;;;;;;;9.58;100.00;100623.38;4973467;28;20099;-61
2023/03/12 10:18:57;;;;;;;;;;;;;;;9.74;100.00;100614.09;4972983;28;20321;-60
2023/03/12 10:21:53;;;;;;;27.30;6.63;;;;;;;9.77;100.00;100623.66;4988900;28;19914;-60
2023/03/12 10:24:21;;;;;;;27.58;6.32;;;;;;;9.77;100.00;100619.25;4972732;28;20043;-59
2023/03/12 10:26:49;;;;;;;24.73;6.57;;;;;;;9.27;100.00;100535.94;4974202;28;20046;-60
2023/03/12 10:29:17;;;;;;;28.00;6.43;;;;;;;9.65;100.00;100600.38;4974407;28;20090;-60
2023/03/12 10:32:04;;;;;;;26.27;6.47;;;;;;;9.70;100.00;100604.59;4974144;28;20101;-60
2023/03/12 10:34:36;;;;;;;28.20;6.03;;;;;;;8.95;100.00;100487.06;4972351;28;20493;-59
2023/03/12 10:37:25;;;;;;;36.20;6.97;;;;;;;9.49;100.00;100608.75;4988652;28;20042;-61
2023/03/12 10:39:52;;;;;;;34.38;7.13;;;;;;;9.50;100.00;100623.63;4979350;28;20122;-60
2023/03/12 10:42:28;;;;;;;21.58;6.28;;;;;;;9.14;100.00;100550.34;4972878;28;20062;-58
2023/03/12 10:44:58;;;;;;;29.38;7.18;;;;;;;9.48;100.00;100603.56;4972425;28;20041;-59
2023/03/12 10:47:26;;;;;;;32.67;7.72;;;;;;;9.61;100.00;100639.03;4972717;28;20034;-60
2023/03/12 10:49:52;;;;;;;28.45;6.47;;;;;;;9.54;100.00;100635.72;4973148;28;20060;-60
2023/03/12 10:52:21;;;;;;;29.42;6.25;;;;;;;9.13;100.00;100554.75;4972394;28;20039;-60
2023/03/12 10:54:49;;;;;;;36.15;7.85;;;;;;;9.55;100.00;100616.44;4973663;28;20031;-60
2023/03/12 10:57:15;;;;;;;32.15;6.97;;;;;;;9.48;100.00;100633.34;4973722;28;20132;-59
2023/03/12 10:59:43;;;;;;;26.20;6.18;;;;;;;9.46;100.00;100642.13;4974032;28;20026;-59
2023/03/12 11:02:31;;;;;;;30.67;7.90;;;;;;;9.55;100.00;100658.50;4972723;28;20031;-60
2023/03/12 11:04:58;;;;;;;27.05;6.85;;;;;;;9.35;100.00;100613.59;4971817;28;20032;-59
2023/03/12 11:07:27;;;;;;;29.63;6.93;;;;;;;9.05;100.00;100577.75;4972402;28;20371;-59
2023/03/12 11:10:23;;;;;;;29.85;6.40;;;;;;;9.45;100.00;100651.81;4973473;28;20041;-61
2023/03/12 11:12:53;;;;;;;21.52;6.53;;;;;;;9.57;100.00;100656.66;4980518;28;20054;-60
2023/03/12 11:15:22;;;;;;;24.67;6.60;;;;;;;9.69;100.00;100659.84;4973467;28;20042;-60
2023/03/12 11:17:47;;;;;;;31.98;6.72;;;;;;;9.36;100.00;100573.28;4972494;28;20475;-60